Delia, Kansas
Current Conditions -  °F | °C
As of 11:53 PM on Thursday 30 Oct 2014 (Local Time) from KTOP Reporting Station
Clear Clear  
Wind Chill: 43°   Ceiling: Unl
Heat Index: 49°   Visibility: 10mi
Dew Point: 40°   Wind: 15mph
Humidity: 71%   Direction: 340°NNW
Pressure: 30.27"   Gusts: 22mph
Location:  39.24°N, 95.97°W
Report Text: KTOP 310453Z AUTO 34013G19KT 10SM CLR 09/04 A3027 RMK AO2 SLP249 T00940044 $
Loading
Personal Weather Stations






























Interactive Weather Map
Tropical Storm Tracking
New forecast layout! Learn more

10-Day Weather Forecast

Advertisements
Track Severe Weather on mobile